sensor_id;sensor_type;location;lat;lon;timestamp;P1;durP1;ratioP1;P2;durP2;ratioP2
55435;SDS011;41307;53.142;6.430;2022-08-21T00:01:52;7.03;;;3.20;;
55435;SDS011;41307;53.142;6.430;2022-08-21T00:04:18;7.45;;;2.85;;
55435;SDS011;41307;53.142;6.430;2022-08-21T00:06:45;7.30;;;2.78;;
55435;SDS011;41307;53.142;6.430;2022-08-21T00:09:11;5.07;;;2.72;;
55435;SDS011;41307;53.142;6.430;2022-08-21T00:11:37;5.43;;;2.60;;
55435;SDS011;41307;53.142;6.430;2022-08-21T00:14:04;6.15;;;3.08;;
55435;SDS011;41307;53.142;6.430;2022-08-21T00:16:33;5.55;;;2.78;;
55435;SDS011;41307;53.142;6.430;2022-08-21T00:18:59;8.60;;;3.00;;
55435;SDS011;41307;53.142;6.430;2022-08-21T00:21:25;7.95;;;3.33;;
55435;SDS011;41307;53.142;6.430;2022-08-21T00:23:51;12.60;;;3.42;;
55435;SDS011;41307;53.142;6.430;2022-08-21T00:26:17;7.53;;;3.17;;
55435;SDS011;41307;53.142;6.430;2022-08-21T00:28:43;5.63;;;2.85;;
55435;SDS011;41307;53.142;6.430;2022-08-21T00:31:10;5.28;;;2.95;;
55435;SDS011;41307;53.142;6.430;2022-08-21T00:33:36;7.15;;;2.97;;
55435;SDS011;41307;53.142;6.430;2022-08-21T00:36:02;8.50;;;3.65;;
55435;SDS011;41307;53.142;6.430;2022-08-21T00:38:28;8.07;;;3.50;;
55435;SDS011;41307;53.142;6.430;2022-08-21T00:40:56;4.75;;;3.28;;
55435;SDS011;41307;53.142;6.430;2022-08-21T00:43:25;7.47;;;3.22;;
55435;SDS011;41307;53.142;6.430;2022-08-21T00:45:53;6.10;;;3.08;;
55435;SDS011;41307;53.142;6.430;2022-08-21T00:48:20;6.05;;;3.15;;
55435;SDS011;41307;53.142;6.430;2022-08-21T00:50:52;8.57;;;3.35;;
55435;SDS011;41307;53.142;6.430;2022-08-21T00:53:19;6.60;;;3.10;;
55435;SDS011;41307;53.142;6.430;2022-08-21T00:55:45;9.15;;;3.33;;
55435;SDS011;41307;53.142;6.430;2022-08-21T00:58:11;7.47;;;3.20;;
55435;SDS011;41307;53.142;6.430;2022-08-21T01:00:39;5.85;;;2.88;;
55435;SDS011;41307;53.142;6.430;2022-08-21T01:03:12;6.70;;;3.47;;
55435;SDS011;41307;53.142;6.430;2022-08-21T01:05:40;7.57;;;3.45;;
55435;SDS011;41307;53.142;6.430;2022-08-21T01:08:07;7.47;;;3.13;;
55435;SDS011;41307;53.142;6.430;2022-08-21T01:10:35;4.72;;;3.35;;
55435;SDS011;41307;53.142;6.430;2022-08-21T01:13:02;6.53;;;3.03;;
55435;SDS011;41307;53.142;6.430;2022-08-21T01:15:33;4.80;;;3.10;;
55435;SDS011;41307;53.142;6.430;2022-08-21T01:18:01;7.45;;;3.40;;
55435;SDS011;41307;53.142;6.430;2022-08-21T01:20:28;6.95;;;3.15;;
55435;SDS011;41307;53.142;6.430;2022-08-21T01:22:55;7.07;;;3.13;;
55435;SDS011;41307;53.142;6.430;2022-08-21T01:25:20;8.57;;;3.33;;
55435;SDS011;41307;53.142;6.430;2022-08-21T01:27:46;5.78;;;3.15;;
55435;SDS011;41307;53.142;6.430;2022-08-21T01:30:18;6.05;;;3.13;;
55435;SDS011;41307;53.142;6.430;2022-08-21T01:32:47;6.45;;;3.40;;
55435;SDS011;41307;53.142;6.430;2022-08-21T01:35:14;8.23;;;3.88;;
55435;SDS011;41307;53.142;6.430;2022-08-21T01:37:41;6.68;;;3.25;;
55435;SDS011;41307;53.142;6.430;2022-08-21T01:40:07;6.13;;;3.38;;
55435;SDS011;41307;53.142;6.430;2022-08-21T01:42:34;6.50;;;3.42;;
55435;SDS011;41307;53.142;6.430;2022-08-21T01:45:00;9.02;;;4.13;;
55435;SDS011;41307;53.142;6.430;2022-08-21T01:47:26;6.85;;;3.78;;
55435;SDS011;41307;53.142;6.430;2022-08-21T01:49:52;5.03;;;3.20;;
55435;SDS011;41307;53.142;6.430;2022-08-21T01:52:18;8.57;;;4.28;;
55435;SDS011;41307;53.142;6.430;2022-08-21T01:54:44;9.00;;;4.00;;
55435;SDS011;41307;53.142;6.430;2022-08-21T01:57:10;8.90;;;3.63;;
55435;SDS011;41307;53.142;6.430;2022-08-21T01:59:37;7.45;;;3.55;;
55435;SDS011;41307;53.142;6.430;2022-08-21T02:02:03;7.78;;;4.07;;
55435;SDS011;41307;53.142;6.430;2022-08-21T02:04:30;8.57;;;4.78;;
55435;SDS011;41307;53.142;6.430;2022-08-21T02:06:56;7.93;;;4.65;;
55435;SDS011;41307;53.142;6.430;2022-08-21T02:09:21;9.02;;;4.57;;
55435;SDS011;41307;53.142;6.430;2022-08-21T02:11:47;8.32;;;4.75;;
55435;SDS011;41307;53.142;6.430;2022-08-21T02:14:13;8.90;;;3.92;;
55435;SDS011;41307;53.142;6.430;2022-08-21T02:16:40;6.75;;;3.90;;
55435;SDS011;41307;53.142;6.430;2022-08-21T02:19:07;8.00;;;4.28;;
55435;SDS011;41307;53.142;6.430;2022-08-21T02:21:34;7.80;;;4.93;;
55435;SDS011;41307;53.142;6.430;2022-08-21T02:23:59;8.23;;;5.47;;
55435;SDS011;41307;53.142;6.430;2022-08-21T02:26:26;8.82;;;5.20;;
55435;SDS011;41307;53.142;6.430;2022-08-21T02:28:52;8.15;;;4.85;;
55435;SDS011;41307;53.142;6.430;2022-08-21T02:31:18;8.75;;;4.60;;
55435;SDS011;41307;53.142;6.430;2022-08-21T02:33:44;8.57;;;4.30;;
55435;SDS011;41307;53.142;6.430;2022-08-21T02:36:10;9.27;;;4.68;;
55435;SDS011;41307;53.142;6.430;2022-08-21T02:38:37;9.30;;;5.22;;
55435;SDS011;41307;53.142;6.430;2022-08-21T02:41:08;8.45;;;4.85;;
55435;SDS011;41307;53.142;6.430;2022-08-21T02:43:35;10.25;;;5.05;;
55435;SDS011;41307;53.142;6.430;2022-08-21T02:46:02;10.40;;;5.35;;
55435;SDS011;41307;53.142;6.430;2022-08-21T02:48:29;8.77;;;5.00;;
55435;SDS011;41307;53.142;6.430;2022-08-21T02:53:26;9.63;;;5.32;;
55435;SDS011;41307;53.142;6.430;2022-08-21T02:55:54;9.43;;;5.53;;
55435;SDS011;41307;53.142;6.430;2022-08-21T02:58:23;9.05;;;5.22;;
55435;SDS011;41307;53.142;6.430;2022-08-21T03:00:50;9.85;;;5.65;;
55435;SDS011;41307;53.142;6.430;2022-08-21T03:03:16;8.15;;;5.28;;
55435;SDS011;41307;53.142;6.430;2022-08-21T03:05:42;11.48;;;5.18;;
55435;SDS011;41307;53.142;6.430;2022-08-21T03:08:09;7.40;;;5.07;;
55435;SDS011;41307;53.142;6.430;2022-08-21T03:10:42;9.98;;;5.63;;
55435;SDS011;41307;53.142;6.430;2022-08-21T03:13:10;11.40;;;5.18;;
55435;SDS011;41307;53.142;6.430;2022-08-21T03:15:37;11.18;;;5.00;;
55435;SDS011;41307;53.142;6.430;2022-08-21T03:18:03;8.75;;;5.20;;
55435;SDS011;41307;53.142;6.430;2022-08-21T03:20:30;10.20;;;5.57;;
55435;SDS011;41307;53.142;6.430;2022-08-21T03:22:57;9.40;;;4.97;;
55435;SDS011;41307;53.142;6.430;2022-08-21T03:25:24;8.90;;;5.30;;
55435;SDS011;41307;53.142;6.430;2022-08-21T03:27:51;10.27;;;5.38;;
55435;SDS011;41307;53.142;6.430;2022-08-21T03:30:18;8.68;;;5.93;;
55435;SDS011;41307;53.142;6.430;2022-08-21T03:32:46;7.47;;;5.03;;
55435;SDS011;41307;53.142;6.430;2022-08-21T03:35:12;8.30;;;5.32;;
55435;SDS011;41307;53.142;6.430;2022-08-21T03:37:38;10.80;;;6.10;;
55435;SDS011;41307;53.142;6.430;2022-08-21T03:40:08;7.22;;;5.10;;
55435;SDS011;41307;53.142;6.430;2022-08-21T03:42:35;9.60;;;5.68;;
55435;SDS011;41307;53.142;6.430;2022-08-21T03:45:01;7.90;;;5.00;;
55435;SDS011;41307;53.142;6.430;2022-08-21T03:47:27;9.10;;;5.18;;
55435;SDS011;41307;53.142;6.430;2022-08-21T03:49:53;8.82;;;5.40;;
55435;SDS011;41307;53.142;6.430;2022-08-21T03:52:19;9.40;;;5.32;;
55435;SDS011;41307;53.142;6.430;2022-08-21T03:54:45;11.20;;;4.75;;
55435;SDS011;41307;53.142;6.430;2022-08-21T03:57:11;11.82;;;5.88;;
55435;SDS011;41307;53.142;6.430;2022-08-21T03:59:37;9.13;;;5.63;;
55435;SDS011;41307;53.142;6.430;2022-08-21T04:02:04;9.20;;;5.28;;
55435;SDS011;41307;53.142;6.430;2022-08-21T04:04:32;9.10;;;5.53;;
55435;SDS011;41307;53.142;6.430;2022-08-21T04:06:58;11.05;;;5.88;;
55435;SDS011;41307;53.142;6.430;2022-08-21T04:09:25;11.85;;;6.40;;
55435;SDS011;41307;53.142;6.430;2022-08-21T04:11:50;7.80;;;5.60;;
55435;SDS011;41307;53.142;6.430;2022-08-21T04:14:17;10.68;;;5.55;;
55435;SDS011;41307;53.142;6.430;2022-08-21T04:16:42;8.52;;;5.57;;
55435;SDS011;41307;53.142;6.430;2022-08-21T04:19:09;8.32;;;5.63;;
55435;SDS011;41307;53.142;6.430;2022-08-21T04:21:35;9.55;;;5.95;;
55435;SDS011;41307;53.142;6.430;2022-08-21T04:24:02;9.10;;;5.20;;
55435;SDS011;41307;53.142;6.430;2022-08-21T04:26:29;9.02;;;4.80;;
55435;SDS011;41307;53.142;6.430;2022-08-21T04:28:56;8.95;;;5.80;;
55435;SDS011;41307;53.142;6.430;2022-08-21T04:31:23;11.20;;;6.25;;
55435;SDS011;41307;53.142;6.430;2022-08-21T04:33:50;9.43;;;6.35;;
55435;SDS011;41307;53.142;6.430;2022-08-21T04:36:16;9.48;;;6.50;;
55435;SDS011;41307;53.142;6.430;2022-08-21T04:38:42;9.70;;;5.55;;
55435;SDS011;41307;53.142;6.430;2022-08-21T04:41:08;10.15;;;5.00;;
55435;SDS011;41307;53.142;6.430;2022-08-21T04:43:34;8.27;;;5.45;;
55435;SDS011;41307;53.142;6.430;2022-08-21T04:46:00;8.85;;;5.53;;
55435;SDS011;41307;53.142;6.430;2022-08-21T04:48:26;8.95;;;5.55;;
55435;SDS011;41307;53.142;6.430;2022-08-21T04:51:09;7.78;;;5.25;;
55435;SDS011;41307;53.142;6.430;2022-08-21T04:54:16;10.32;;;5.63;;
55435;SDS011;41307;53.142;6.430;2022-08-21T04:56:45;9.73;;;6.07;;
55435;SDS011;41307;53.142;6.430;2022-08-21T04:59:22;10.05;;;5.50;;
55435;SDS011;41307;53.142;6.430;2022-08-21T05:01:53;9.20;;;5.35;;
55435;SDS011;41307;53.142;6.430;2022-08-21T05:04:22;6.93;;;5.13;;
55435;SDS011;41307;53.142;6.430;2022-08-21T05:06:52;9.43;;;5.68;;
55435;SDS011;41307;53.142;6.430;2022-08-21T05:09:19;10.18;;;5.72;;
55435;SDS011;41307;53.142;6.430;2022-08-21T05:11:46;8.70;;;5.78;;
55435;SDS011;41307;53.142;6.430;2022-08-21T05:14:13;11.82;;;5.78;;
55435;SDS011;41307;53.142;6.430;2022-08-21T05:16:39;9.52;;;5.70;;
55435;SDS011;41307;53.142;6.430;2022-08-21T05:19:07;11.80;;;5.90;;
55435;SDS011;41307;53.142;6.430;2022-08-21T05:21:34;8.00;;;5.38;;
55435;SDS011;41307;53.142;6.430;2022-08-21T05:24:00;11.98;;;5.93;;
55435;SDS011;41307;53.142;6.430;2022-08-21T05:26:26;12.35;;;6.25;;
55435;SDS011;41307;53.142;6.430;2022-08-21T05:28:52;10.40;;;5.43;;
55435;SDS011;41307;53.142;6.430;2022-08-21T05:31:18;10.60;;;5.13;;
55435;SDS011;41307;53.142;6.430;2022-08-21T05:33:43;10.13;;;5.82;;
55435;SDS011;41307;53.142;6.430;2022-08-21T05:36:09;10.10;;;5.30;;
55435;SDS011;41307;53.142;6.430;2022-08-21T05:38:35;9.82;;;5.05;;
55435;SDS011;41307;53.142;6.430;2022-08-21T05:41:00;9.45;;;4.80;;
55435;SDS011;41307;53.142;6.430;2022-08-21T05:43:26;7.05;;;4.30;;
55435;SDS011;41307;53.142;6.430;2022-08-21T05:45:52;9.25;;;4.25;;
55435;SDS011;41307;53.142;6.430;2022-08-21T05:48:22;6.28;;;3.22;;
55435;SDS011;41307;53.142;6.430;2022-08-21T05:50:49;8.65;;;3.97;;
55435;SDS011;41307;53.142;6.430;2022-08-21T05:53:17;5.93;;;3.15;;
55435;SDS011;41307;53.142;6.430;2022-08-21T05:55:44;6.20;;;2.80;;
55435;SDS011;41307;53.142;6.430;2022-08-21T05:58:11;7.53;;;2.97;;
55435;SDS011;41307;53.142;6.430;2022-08-21T06:00:41;6.82;;;3.20;;
55435;SDS011;41307;53.142;6.430;2022-08-21T06:03:11;5.15;;;2.80;;
55435;SDS011;41307;53.142;6.430;2022-08-21T06:05:39;5.95;;;3.08;;
55435;SDS011;41307;53.142;6.430;2022-08-21T06:08:05;8.98;;;2.90;;
55435;SDS011;41307;53.142;6.430;2022-08-21T06:10:30;6.63;;;3.00;;
55435;SDS011;41307;53.142;6.430;2022-08-21T06:12:56;7.15;;;2.88;;
55435;SDS011;41307;53.142;6.430;2022-08-21T06:15:22;5.25;;;3.03;;
55435;SDS011;41307;53.142;6.430;2022-08-21T06:17:47;7.60;;;2.80;;
55435;SDS011;41307;53.142;6.430;2022-08-21T06:20:13;5.03;;;2.38;;
55435;SDS011;41307;53.142;6.430;2022-08-21T06:22:39;7.00;;;2.80;;
55435;SDS011;41307;53.142;6.430;2022-08-21T06:25:04;6.55;;;2.53;;
55435;SDS011;41307;53.142;6.430;2022-08-21T06:27:30;8.63;;;2.85;;
55435;SDS011;41307;53.142;6.430;2022-08-21T06:29:56;6.63;;;2.55;;
55435;SDS011;41307;53.142;6.430;2022-08-21T06:32:22;5.70;;;2.72;;
55435;SDS011;41307;53.142;6.430;2022-08-21T06:34:48;7.05;;;2.60;;
55435;SDS011;41307;53.142;6.430;2022-08-21T06:37:14;8.88;;;2.83;;
55435;SDS011;41307;53.142;6.430;2022-08-21T06:39:39;5.57;;;2.80;;
55435;SDS011;41307;53.142;6.430;2022-08-21T06:42:05;6.93;;;2.65;;
55435;SDS011;41307;53.142;6.430;2022-08-21T06:44:31;6.10;;;3.00;;
55435;SDS011;41307;53.142;6.430;2022-08-21T06:46:57;8.18;;;2.95;;
55435;SDS011;41307;53.142;6.430;2022-08-21T06:49:22;6.63;;;3.13;;
55435;SDS011;41307;53.142;6.430;2022-08-21T06:51:48;8.85;;;3.35;;
55435;SDS011;41307;53.142;6.430;2022-08-21T06:54:14;7.40;;;3.05;;
55435;SDS011;41307;53.142;6.430;2022-08-21T06:56:40;7.60;;;3.33;;
55435;SDS011;41307;53.142;6.430;2022-08-21T06:59:05;9.85;;;3.20;;
55435;SDS011;41307;53.142;6.430;2022-08-21T07:01:31;7.32;;;3.15;;
55435;SDS011;41307;53.142;6.430;2022-08-21T07:03:57;4.97;;;2.80;;
55435;SDS011;41307;53.142;6.430;2022-08-21T07:06:23;6.75;;;2.90;;
55435;SDS011;41307;53.142;6.430;2022-08-21T07:08:50;7.05;;;2.85;;
55435;SDS011;41307;53.142;6.430;2022-08-21T07:11:17;5.50;;;2.50;;
55435;SDS011;41307;53.142;6.430;2022-08-21T07:13:44;6.18;;;2.80;;
55435;SDS011;41307;53.142;6.430;2022-08-21T07:16:10;8.82;;;2.90;;
55435;SDS011;41307;53.142;6.430;2022-08-21T07:18:36;8.30;;;2.70;;
55435;SDS011;41307;53.142;6.430;2022-08-21T07:21:03;7.95;;;2.83;;
55435;SDS011;41307;53.142;6.430;2022-08-21T07:23:31;7.93;;;2.70;;
55435;SDS011;41307;53.142;6.430;2022-08-21T07:28:32;5.13;;;2.15;;
55435;SDS011;41307;53.142;6.430;2022-08-21T07:30:58;6.65;;;2.30;;
55435;SDS011;41307;53.142;6.430;2022-08-21T07:33:25;6.82;;;2.10;;
55435;SDS011;41307;53.142;6.430;2022-08-21T07:35:52;7.97;;;1.90;;
55435;SDS011;41307;53.142;6.430;2022-08-21T07:38:18;4.25;;;1.77;;
55435;SDS011;41307;53.142;6.430;2022-08-21T07:40:45;5.82;;;2.10;;
55435;SDS011;41307;53.142;6.430;2022-08-21T07:43:11;4.82;;;1.80;;
55435;SDS011;41307;53.142;6.430;2022-08-21T07:45:37;7.70;;;1.80;;
55435;SDS011;41307;53.142;6.430;2022-08-21T07:48:03;5.82;;;1.90;;
55435;SDS011;41307;53.142;6.430;2022-08-21T07:50:29;6.75;;;2.05;;
55435;SDS011;41307;53.142;6.430;2022-08-21T07:52:55;5.65;;;1.70;;
55435;SDS011;41307;53.142;6.430;2022-08-21T07:55:22;6.15;;;2.08;;
55435;SDS011;41307;53.142;6.430;2022-08-21T07:57:48;7.63;;;1.90;;
55435;SDS011;41307;53.142;6.430;2022-08-21T08:00:15;7.05;;;1.90;;
55435;SDS011;41307;53.142;6.430;2022-08-21T08:02:45;5.93;;;1.70;;
55435;SDS011;41307;53.142;6.430;2022-08-21T08:05:14;5.50;;;2.13;;
55435;SDS011;41307;53.142;6.430;2022-08-21T08:07:40;6.47;;;1.98;;
55435;SDS011;41307;53.142;6.430;2022-08-21T08:10:06;9.18;;;2.22;;
55435;SDS011;41307;53.142;6.430;2022-08-21T08:12:34;6.47;;;1.80;;
55435;SDS011;41307;53.142;6.430;2022-08-21T08:15:00;5.93;;;2.00;;
55435;SDS011;41307;53.142;6.430;2022-08-21T08:17:27;6.28;;;1.50;;
55435;SDS011;41307;53.142;6.430;2022-08-21T08:19:53;5.22;;;1.40;;
55435;SDS011;41307;53.142;6.430;2022-08-21T08:22:20;5.15;;;1.65;;
55435;SDS011;41307;53.142;6.430;2022-08-21T08:24:49;7.10;;;2.60;;
55435;SDS011;41307;53.142;6.430;2022-08-21T08:27:15;4.90;;;1.42;;
55435;SDS011;41307;53.142;6.430;2022-08-21T08:29:42;5.35;;;1.38;;
55435;SDS011;41307;53.142;6.430;2022-08-21T08:32:08;3.50;;;1.40;;
55435;SDS011;41307;53.142;6.430;2022-08-21T08:34:34;6.03;;;1.73;;
55435;SDS011;41307;53.142;6.430;2022-08-21T08:37:02;6.82;;;2.03;;
55435;SDS011;41307;53.142;6.430;2022-08-21T08:39:28;6.65;;;2.00;;
55435;SDS011;41307;53.142;6.430;2022-08-21T08:41:58;3.97;;;1.27;;
55435;SDS011;41307;53.142;6.430;2022-08-21T08:44:29;7.95;;;1.75;;
55435;SDS011;41307;53.142;6.430;2022-08-21T08:46:55;7.47;;;1.60;;
55435;SDS011;41307;53.142;6.430;2022-08-21T08:52:17;4.32;;;1.42;;
55435;SDS011;41307;53.142;6.430;2022-08-21T08:57:30;6.85;;;1.98;;
55435;SDS011;41307;53.142;6.430;2022-08-21T08:59:58;5.32;;;1.50;;
55435;SDS011;41307;53.142;6.430;2022-08-21T09:02:26;6.40;;;1.50;;
55435;SDS011;41307;53.142;6.430;2022-08-21T09:04:55;8.75;;;1.80;;
55435;SDS011;41307;53.142;6.430;2022-08-21T09:10:13;7.90;;;2.28;;
55435;SDS011;41307;53.142;6.430;2022-08-21T09:12:49;6.53;;;1.80;;
55435;SDS011;41307;53.142;6.430;2022-08-21T09:20:47;6.78;;;1.50;;
55435;SDS011;41307;53.142;6.430;2022-08-21T09:24:06;8.98;;;1.90;;
55435;SDS011;41307;53.142;6.430;2022-08-21T09:26:17;6.65;;;1.55;;
55435;SDS011;41307;53.142;6.430;2022-08-21T09:28:53;4.60;;;1.50;;
55435;SDS011;41307;53.142;6.430;2022-08-21T09:31:27;5.18;;;1.52;;
55435;SDS011;41307;53.142;6.430;2022-08-21T09:34:02;6.60;;;2.17;;
55435;SDS011;41307;53.142;6.430;2022-08-21T09:36:39;6.20;;;1.45;;
55435;SDS011;41307;53.142;6.430;2022-08-21T09:39:08;8.25;;;1.33;;
55435;SDS011;41307;53.142;6.430;2022-08-21T09:41:36;5.22;;;1.42;;
55435;SDS011;41307;53.142;6.430;2022-08-21T09:44:03;7.38;;;1.60;;
55435;SDS011;41307;53.142;6.430;2022-08-21T09:46:30;5.53;;;1.70;;
55435;SDS011;41307;53.142;6.430;2022-08-21T09:49:01;5.95;;;1.95;;
55435;SDS011;41307;53.142;6.430;2022-08-21T09:51:29;7.15;;;1.67;;
55435;SDS011;41307;53.142;6.430;2022-08-21T09:56:36;7.00;;;1.83;;
55435;SDS011;41307;53.142;6.430;2022-08-21T09:59:34;6.72;;;1.50;;
55435;SDS011;41307;53.142;6.430;2022-08-21T10:02:00;8.23;;;1.67;;
55435;SDS011;41307;53.142;6.430;2022-08-21T10:04:32;7.72;;;2.05;;
55435;SDS011;41307;53.142;6.430;2022-08-21T10:07:10;6.28;;;1.60;;
55435;SDS011;41307;53.142;6.430;2022-08-21T10:09:38;10.00;;;2.00;;
55435;SDS011;41307;53.142;6.430;2022-08-21T10:42:56;7.18;;;1.63;;
55435;SDS011;41307;53.142;6.430;2022-08-21T10:45:36;4.15;;;1.52;;
55435;SDS011;41307;53.142;6.430;2022-08-21T10:48:27;6.93;;;1.70;;
55435;SDS011;41307;53.142;6.430;2022-08-21T10:56:31;5.53;;;1.80;;
55435;SDS011;41307;53.142;6.430;2022-08-21T11:01:53;5.25;;;1.58;;
55435;SDS011;41307;53.142;6.430;2022-08-21T11:04:34;6.28;;;1.90;;
55435;SDS011;41307;53.142;6.430;2022-08-21T11:07:35;6.22;;;1.60;;
55435;SDS011;41307;53.142;6.430;2022-08-21T11:10:18;8.38;;;2.00;;
55435;SDS011;41307;53.142;6.430;2022-08-21T11:12:46;4.78;;;1.50;;
55435;SDS011;41307;53.142;6.430;2022-08-21T11:18:20;5.97;;;1.80;;
55435;SDS011;41307;53.142;6.430;2022-08-21T11:21:09;8.05;;;1.65;;
55435;SDS011;41307;53.142;6.430;2022-08-21T11:29:41;6.40;;;1.55;;
